createdAt,value
2019-02-08T00:00:58.527Z,6.90
2019-02-08T00:01:59.431Z,7.00
2019-02-08T00:03:00.282Z,7.00
2019-02-08T00:04:01.166Z,7.00
2019-02-08T00:05:02.175Z,7.00
2019-02-08T00:06:03.055Z,7.00
2019-02-08T00:07:03.965Z,7.00
2019-02-08T00:08:05.235Z,7.00
2019-02-08T00:09:06.155Z,7.00
2019-02-08T00:10:07.206Z,7.10
2019-02-08T00:11:08.047Z,7.10
2019-02-08T00:12:08.910Z,7.10
2019-02-08T00:13:09.755Z,7.10
2019-02-08T00:14:10.573Z,7.10
2019-02-08T00:15:11.407Z,7.10
2019-02-08T00:16:12.352Z,7.10
2019-02-08T00:17:13.737Z,7.10
2019-02-08T00:18:14.594Z,7.10
2019-02-08T00:19:15.818Z,7.10
2019-02-08T00:20:16.660Z,7.10
2019-02-08T00:21:37.498Z,7.10
2019-02-08T00:22:38.464Z,7.10
2019-02-08T00:23:39.393Z,7.10
2019-02-08T00:24:40.207Z,7.10
2019-02-08T00:25:41.147Z,7.10
2019-02-08T00:26:42.067Z,7.10
2019-02-08T00:27:43.194Z,7.10
2019-02-08T00:28:44.017Z,7.10
2019-02-08T00:29:44.844Z,7.10
2019-02-08T00:30:45.719Z,7.10
2019-02-08T00:31:46.661Z,7.10
2019-02-08T00:32:47.577Z,7.10
2019-02-08T00:33:48.552Z,7.10
2019-02-08T00:34:49.495Z,7.10
2019-02-08T00:35:50.426Z,7.10
2019-02-08T00:36:51.768Z,7.10
2019-02-08T00:37:52.661Z,7.10
2019-02-08T00:38:53.498Z,7.00
2019-02-08T00:39:54.337Z,7.00
2019-02-08T00:40:55.163Z,7.00
2019-02-08T00:41:56.007Z,7.00
2019-02-08T00:42:56.881Z,7.00
2019-02-08T00:43:57.687Z,7.00
2019-02-08T00:44:59.215Z,7.00
2019-02-08T00:46:00.061Z,7.10
2019-02-08T00:47:00.891Z,7.00
2019-02-08T00:48:01.786Z,7.00
2019-02-08T00:49:02.722Z,7.00
2019-02-08T00:50:03.600Z,7.00
2019-02-08T00:51:04.428Z,7.00
2019-02-08T00:52:05.278Z,7.00
2019-02-08T00:53:06.420Z,7.00
2019-02-08T00:54:07.361Z,7.00
2019-02-08T00:55:08.187Z,7.00
2019-02-08T00:56:09.016Z,7.00
2019-02-08T00:57:09.931Z,7.00
2019-02-08T00:58:10.775Z,7.00
2019-02-08T00:59:11.610Z,7.00
2019-02-08T01:00:12.533Z,6.90
2019-02-08T01:01:13.492Z,6.90
2019-02-08T01:02:14.803Z,6.90
2019-02-08T01:03:15.640Z,6.80
2019-02-08T01:04:16.468Z,6.80
2019-02-08T01:05:17.416Z,6.80
2019-02-08T01:06:18.527Z,6.80
2019-02-08T01:07:19.583Z,6.80
2019-02-08T01:08:20.666Z,6.70
2019-02-08T01:09:22.009Z,6.80
2019-02-08T01:10:23.517Z,6.80
2019-02-08T01:11:25.010Z,6.80
2019-02-08T01:12:26.167Z,6.80
2019-02-08T01:13:28.498Z,6.80
2019-02-08T01:14:29.943Z,6.80
2019-02-08T01:15:31.087Z,6.80
2019-02-08T01:16:32.251Z,6.90
2019-02-08T01:17:33.286Z,6.80
2019-02-08T01:18:34.335Z,6.90
2019-02-08T01:19:35.970Z,6.90
2019-02-08T01:20:36.964Z,6.90
2019-02-08T01:21:38.021Z,6.90
2019-02-08T01:22:39.147Z,6.90
2019-02-08T01:23:41.486Z,6.90
2019-02-08T01:24:42.786Z,7.00
2019-02-08T01:25:43.787Z,7.00
2019-02-08T01:26:44.920Z,6.90
2019-02-08T01:27:45.897Z,7.00
2019-02-08T01:28:46.901Z,7.00
2019-02-08T01:29:48.711Z,7.00
2019-02-08T01:30:49.818Z,7.00
2019-02-08T01:31:51.071Z,7.00
2019-02-08T01:32:52.364Z,7.00
2019-02-08T01:33:53.340Z,7.00
2019-02-08T01:34:54.212Z,7.00
2019-02-08T01:35:55.100Z,7.00
2019-02-08T01:36:55.930Z,7.00
2019-02-08T01:37:56.760Z,7.00
2019-02-08T01:38:57.621Z,7.10
2019-02-08T01:39:58.582Z,7.20
2019-02-08T01:40:59.536Z,7.20
2019-02-08T01:42:00.382Z,7.20
2019-02-08T01:43:01.357Z,7.20
2019-02-08T01:44:02.177Z,7.20
2019-02-08T01:45:03.020Z,7.20
2019-02-08T01:46:03.905Z,7.10
2019-02-08T01:47:04.771Z,7.20
2019-02-08T01:48:05.598Z,7.20
2019-02-08T01:49:06.457Z,7.20
2019-02-08T01:50:07.277Z,7.20
2019-02-08T01:51:08.640Z,7.20
2019-02-08T01:52:09.746Z,7.20
2019-02-08T01:53:10.558Z,7.20
2019-02-08T01:54:11.394Z,7.20
2019-02-08T01:55:12.247Z,7.20
2019-02-08T01:56:13.125Z,7.20
2019-02-08T01:57:13.965Z,7.20
2019-02-08T01:58:14.811Z,7.20
2019-02-08T01:59:15.665Z,7.20
2019-02-08T02:00:16.507Z,7.20
2019-02-08T02:01:17.340Z,7.20
2019-02-08T02:02:18.179Z,7.20
2019-02-08T02:03:19.058Z,7.30
2019-02-08T02:04:19.873Z,7.30
2019-02-08T02:05:20.694Z,7.30
2019-02-08T02:06:21.531Z,7.30
2019-02-08T02:07:22.379Z,7.30
2019-02-08T02:08:23.231Z,7.30
2019-02-08T02:09:24.101Z,7.30
2019-02-08T02:10:24.939Z,7.30
2019-02-08T02:11:25.846Z,7.30
2019-02-08T02:12:26.685Z,7.30
2019-02-08T02:13:27.554Z,7.30
2019-02-08T02:14:28.541Z,7.30
2019-02-08T02:15:29.368Z,7.30
2019-02-08T02:16:30.202Z,7.30
2019-02-08T02:17:31.047Z,7.30
2019-02-08T02:18:31.913Z,7.30
2019-02-08T02:19:32.771Z,7.30
2019-02-08T02:20:33.589Z,7.30
2019-02-08T02:21:34.528Z,7.20
2019-02-08T02:22:35.391Z,7.30
2019-02-08T02:23:36.209Z,7.20
2019-02-08T02:24:37.059Z,7.20
2019-02-08T02:25:37.887Z,7.20
2019-02-08T02:26:40.643Z,7.20
2019-02-08T02:27:41.468Z,7.20
2019-02-08T02:28:42.302Z,7.20
2019-02-08T02:29:43.124Z,7.20
2019-02-08T02:30:43.966Z,7.20
2019-02-08T02:31:44.872Z,7.20
2019-02-08T02:32:45.756Z,7.20
2019-02-08T02:33:46.597Z,7.20
2019-02-08T02:34:47.441Z,7.20
2019-02-08T02:35:48.374Z,7.20
2019-02-08T02:36:49.203Z,7.20
2019-02-08T02:37:50.045Z,7.10
2019-02-08T02:38:50.873Z,7.10
2019-02-08T02:39:51.821Z,7.10
2019-02-08T02:40:52.669Z,7.10
2019-02-08T02:41:53.490Z,7.10
2019-02-08T02:42:54.314Z,7.10
2019-02-08T02:43:55.181Z,7.00
2019-02-08T02:44:56.001Z,7.00
2019-02-08T02:45:56.828Z,6.90
2019-02-08T02:46:57.673Z,6.90
2019-02-08T02:47:58.497Z,6.80
2019-02-08T02:48:59.369Z,6.80
2019-02-08T02:50:00.179Z,6.80
2019-02-08T02:51:01.105Z,6.80
2019-02-08T02:52:01.891Z,6.90
2019-02-08T02:53:02.714Z,6.90
2019-02-08T02:54:04.979Z,6.90
2019-02-08T02:55:06.175Z,6.90
2019-02-08T02:56:07.050Z,6.80
2019-02-08T02:57:07.872Z,6.80
2019-02-08T02:58:08.698Z,6.80
2019-02-08T02:59:09.522Z,6.80
2019-02-08T03:00:10.352Z,6.80
2019-02-08T03:01:11.215Z,6.80
2019-02-08T03:02:12.081Z,6.90
2019-02-08T03:03:12.914Z,6.90
2019-02-08T03:04:13.829Z,6.90
2019-02-08T03:05:14.666Z,6.90
2019-02-08T03:06:15.495Z,6.80
2019-02-08T03:07:16.362Z,6.80
2019-02-08T03:08:17.229Z,6.80
2019-02-08T03:09:18.079Z,6.80
2019-02-08T03:10:18.942Z,6.80
2019-02-08T03:11:19.781Z,6.80
2019-02-08T03:12:20.662Z,6.70
2019-02-08T03:13:21.600Z,6.80
2019-02-08T03:14:22.434Z,6.70
2019-02-08T03:15:23.250Z,6.70
2019-02-08T03:16:24.074Z,6.70
2019-02-08T03:17:25.163Z,6.70
2019-02-08T03:18:26.085Z,6.70
2019-02-08T03:19:26.920Z,6.70
2019-02-08T03:20:27.771Z,6.80
2019-02-08T03:21:28.625Z,6.70
2019-02-08T03:22:29.607Z,6.70
2019-02-08T03:23:30.449Z,6.70
2019-02-08T03:24:31.539Z,6.70
2019-02-08T03:25:32.373Z,6.70
2019-02-08T03:26:33.223Z,6.80
2019-02-08T03:27:34.105Z,6.70
2019-02-08T03:28:34.941Z,6.70
2019-02-08T03:29:35.773Z,6.70
2019-02-08T03:30:36.605Z,6.70
2019-02-08T03:31:37.454Z,6.70
2019-02-08T03:32:38.404Z,6.70
2019-02-08T03:33:39.247Z,6.70
2019-02-08T03:34:40.406Z,6.70
2019-02-08T03:35:41.226Z,6.70
2019-02-08T03:36:42.067Z,6.70
2019-02-08T03:37:42.896Z,6.80
2019-02-08T03:38:43.764Z,6.70
2019-02-08T03:39:44.602Z,6.80
2019-02-08T03:40:45.471Z,6.80
2019-02-08T03:41:46.285Z,6.80
2019-02-08T03:42:47.126Z,6.80
2019-02-08T03:43:48.037Z,6.80
2019-02-08T03:44:48.913Z,6.80
2019-02-08T03:45:49.777Z,6.80
2019-02-08T03:46:50.616Z,6.80
2019-02-08T03:47:51.479Z,6.80
2019-02-08T03:48:52.303Z,6.80
2019-02-08T03:49:53.133Z,6.80
2019-02-08T03:50:54.021Z,6.80
2019-02-08T03:51:54.840Z,6.90
2019-02-08T03:52:55.672Z,6.90
2019-02-08T03:53:56.497Z,6.90
2019-02-08T03:54:57.374Z,6.90
2019-02-08T03:55:58.970Z,6.80
2019-02-08T03:57:00.167Z,6.80
2019-02-08T03:58:01.005Z,6.90
2019-02-08T03:59:01.946Z,6.90
2019-02-08T04:00:02.767Z,6.90
2019-02-08T04:01:03.774Z,6.90
2019-02-08T04:02:04.626Z,6.90
2019-02-08T04:03:05.551Z,6.80
2019-02-08T04:04:06.370Z,6.80
2019-02-08T04:05:07.206Z,6.80
2019-02-08T04:06:08.088Z,6.70
2019-02-08T04:07:08.924Z,6.70
2019-02-08T04:08:09.741Z,6.70
2019-02-08T04:09:10.640Z,6.70
2019-02-08T04:10:11.457Z,6.70
2019-02-08T04:11:12.617Z,6.80
2019-02-08T04:12:13.442Z,6.80
2019-02-08T04:13:14.500Z,6.80
2019-02-08T04:14:15.422Z,6.80
2019-02-08T04:15:16.246Z,6.80
2019-02-08T04:16:17.103Z,6.80
2019-02-08T04:17:17.947Z,6.80
2019-02-08T04:18:18.808Z,6.80
2019-02-08T04:19:19.650Z,6.80
2019-02-08T04:20:20.464Z,6.80
2019-02-08T04:21:21.319Z,6.80
2019-02-08T04:22:22.260Z,6.80
2019-02-08T04:23:23.105Z,6.80
2019-02-08T04:24:29.803Z,6.80
2019-02-08T04:25:26.656Z,6.70
2019-02-08T04:26:27.583Z,6.70
2019-02-08T04:27:28.442Z,6.70
2019-02-08T04:28:29.299Z,6.70
2019-02-08T04:29:30.130Z,6.70
2019-02-08T04:30:30.985Z,6.60
2019-02-08T04:31:31.808Z,6.50
2019-02-08T04:32:32.650Z,6.50
2019-02-08T04:33:33.536Z,6.50
2019-02-08T04:34:34.434Z,6.50
2019-02-08T04:35:35.257Z,6.40
2019-02-08T04:36:36.114Z,6.40
2019-02-08T04:37:37.161Z,6.40
2019-02-08T04:38:38.020Z,6.40
2019-02-08T04:39:38.923Z,6.40
2019-02-08T04:40:39.748Z,6.40
2019-02-08T04:41:40.600Z,6.40
2019-02-08T04:42:41.422Z,6.40
2019-02-08T04:43:42.320Z,6.40
2019-02-08T04:44:43.258Z,6.40
2019-02-08T04:45:44.116Z,6.40
2019-02-08T04:46:44.946Z,6.40
2019-02-08T04:47:45.775Z,6.50
2019-02-08T04:48:46.610Z,6.50
2019-02-08T04:49:47.431Z,6.50
2019-02-08T04:50:48.291Z,6.50
2019-02-08T04:51:49.116Z,6.50
2019-02-08T04:52:49.987Z,6.50
2019-02-08T04:53:53.768Z,6.50
2019-02-08T04:54:54.581Z,6.50
2019-02-08T04:55:55.429Z,6.50
2019-02-08T04:56:56.236Z,6.50
2019-02-08T04:57:57.105Z,6.50
2019-02-08T04:58:58.198Z,6.50
2019-02-08T04:59:59.026Z,6.50
2019-02-08T05:00:59.853Z,6.50
2019-02-08T05:02:00.702Z,6.50
2019-02-08T05:03:01.657Z,6.50
2019-02-08T05:04:02.506Z,6.60
2019-02-08T05:05:03.338Z,6.60
2019-02-08T05:06:04.233Z,6.60
2019-02-08T05:07:05.075Z,6.60
2019-02-08T05:08:05.913Z,6.60
2019-02-08T05:09:06.856Z,6.60
2019-02-08T05:10:07.680Z,6.60
2019-02-08T05:11:08.651Z,6.70
2019-02-08T05:12:09.485Z,6.70
2019-02-08T05:13:10.306Z,6.70
2019-02-08T05:14:11.401Z,6.70
2019-02-08T05:15:12.239Z,6.60
2019-02-08T05:16:13.114Z,6.60
2019-02-08T05:17:13.972Z,6.60
2019-02-08T05:18:14.826Z,6.60
2019-02-08T05:19:15.647Z,6.60
2019-02-08T05:20:16.470Z,6.50
2019-02-08T05:21:17.301Z,6.50
2019-02-08T05:22:18.131Z,6.50
2019-02-08T05:23:19.010Z,6.50
2019-02-08T05:24:19.934Z,6.50
2019-02-08T05:25:20.769Z,6.50
2019-02-08T05:26:21.599Z,6.50
2019-02-08T05:27:22.485Z,6.50
2019-02-08T05:28:23.323Z,6.50
2019-02-08T05:29:24.162Z,6.50
2019-02-08T05:30:25.077Z,6.50
2019-02-08T05:31:25.911Z,6.50
2019-02-08T05:32:26.806Z,6.50
2019-02-08T05:33:27.637Z,6.60
2019-02-08T05:34:28.472Z,6.50
2019-02-08T05:35:29.323Z,6.50
2019-02-08T05:36:30.183Z,6.50
2019-02-08T05:37:30.998Z,6.50
2019-02-08T05:38:31.835Z,6.50
2019-02-08T05:39:32.657Z,6.50
2019-02-08T05:40:33.502Z,6.50
2019-02-08T05:41:34.379Z,6.50
2019-02-08T05:42:35.208Z,6.50
2019-02-08T05:43:36.186Z,6.50
2019-02-08T05:44:37.009Z,6.50
2019-02-08T05:45:37.874Z,6.50
2019-02-08T05:46:38.722Z,6.50
2019-02-08T05:47:39.651Z,6.50
2019-02-08T05:48:40.514Z,6.50
2019-02-08T05:49:41.370Z,6.50
2019-02-08T05:50:42.263Z,6.50
2019-02-08T05:51:43.094Z,6.50
2019-02-08T05:52:43.916Z,6.50
2019-02-08T05:53:44.731Z,6.60
2019-02-08T05:54:45.573Z,6.60
2019-02-08T05:55:46.560Z,6.50
2019-02-08T05:56:47.377Z,6.50
2019-02-08T05:57:48.207Z,6.60
2019-02-08T05:58:49.080Z,6.60
2019-02-08T05:59:49.907Z,6.60
2019-02-08T06:00:50.747Z,6.60
2019-02-08T06:01:51.613Z,6.60
2019-02-08T06:02:52.569Z,6.50
2019-02-08T06:03:53.482Z,6.50
2019-02-08T06:04:54.318Z,6.50
2019-02-08T06:05:55.170Z,6.50
2019-02-08T06:06:56.018Z,6.40
2019-02-08T06:07:56.836Z,6.40
2019-02-08T06:08:57.691Z,6.40
2019-02-08T06:09:58.836Z,6.40
2019-02-08T06:11:01.057Z,6.40
2019-02-08T06:12:01.889Z,6.30
2019-02-08T06:13:02.726Z,6.30
2019-02-08T06:14:03.591Z,6.40
2019-02-08T06:15:04.420Z,6.30
2019-02-08T06:16:05.257Z,6.30
2019-02-08T06:17:06.104Z,6.30
2019-02-08T06:18:06.921Z,6.30
2019-02-08T06:19:07.906Z,6.40
2019-02-08T06:20:08.736Z,6.40
2019-02-08T06:21:09.569Z,6.40
2019-02-08T06:22:10.511Z,6.40
2019-02-08T06:23:13.260Z,6.50
2019-02-08T06:24:14.320Z,6.50
2019-02-08T06:25:15.282Z,6.50
2019-02-08T06:26:16.279Z,6.60
2019-02-08T06:27:17.112Z,6.60
2019-02-08T06:28:17.997Z,6.60
2019-02-08T06:29:18.825Z,6.60
2019-02-08T06:30:19.671Z,6.70
2019-02-08T06:31:20.746Z,6.70
2019-02-08T06:32:21.571Z,6.70
2019-02-08T06:33:22.449Z,6.70
2019-02-08T06:34:23.292Z,6.70
2019-02-08T06:35:24.231Z,6.70
2019-02-08T06:36:25.104Z,6.70
2019-02-08T06:37:25.962Z,6.80
2019-02-08T06:38:26.807Z,6.70
2019-02-08T06:39:27.659Z,6.80
2019-02-08T06:40:28.471Z,6.80
2019-02-08T06:41:29.341Z,6.80
2019-02-08T06:42:30.170Z,6.80
2019-02-08T06:43:31.046Z,6.80
2019-02-08T06:44:31.909Z,6.80
2019-02-08T06:45:32.744Z,6.80
2019-02-08T06:46:33.581Z,6.90
2019-02-08T06:47:34.421Z,6.90
2019-02-08T06:48:35.342Z,6.90
2019-02-08T06:49:38.846Z,6.90
2019-02-08T06:50:39.684Z,6.90
2019-02-08T06:51:40.521Z,6.90
2019-02-08T06:52:41.413Z,6.90
2019-02-08T06:53:42.498Z,6.90
2019-02-08T06:54:43.389Z,6.90
2019-02-08T06:55:44.426Z,6.90
2019-02-08T06:56:45.333Z,6.90
2019-02-08T06:57:46.168Z,6.90
2019-02-08T06:58:47.085Z,6.90
2019-02-08T06:59:47.972Z,6.90
2019-02-08T07:00:48.842Z,6.90
2019-02-08T07:01:49.669Z,6.90
2019-02-08T07:02:50.496Z,7.00
2019-02-08T07:03:51.365Z,7.00
2019-02-08T07:04:52.206Z,6.90
2019-02-08T07:05:53.044Z,6.90
2019-02-08T07:06:53.869Z,7.00
2019-02-08T07:07:54.753Z,7.00
2019-02-08T07:08:55.615Z,7.00
2019-02-08T07:09:56.448Z,6.90
2019-02-08T07:10:57.266Z,6.90
2019-02-08T07:11:58.401Z,7.00
2019-02-08T07:12:59.291Z,7.00
2019-02-08T07:14:00.168Z,7.00
2019-02-08T07:15:09.874Z,7.00
2019-02-08T07:16:10.713Z,7.00
2019-02-08T07:17:11.607Z,7.00
2019-02-08T07:18:12.556Z,7.10
2019-02-08T07:19:13.425Z,7.10
2019-02-08T07:20:14.272Z,7.10
2019-02-08T07:21:15.107Z,7.10
2019-02-08T07:22:15.936Z,7.10
2019-02-08T07:23:16.765Z,7.10
2019-02-08T07:24:18.849Z,7.10
2019-02-08T07:25:19.700Z,7.10
2019-02-08T07:26:20.561Z,7.10
2019-02-08T07:27:21.394Z,7.10
2019-02-08T07:28:22.236Z,7.10
2019-02-08T07:29:23.121Z,7.10
2019-02-08T07:30:23.963Z,7.10
2019-02-08T07:31:24.856Z,7.10
2019-02-08T07:32:25.780Z,7.20
2019-02-08T07:33:26.601Z,7.20
2019-02-08T07:34:27.477Z,7.20
2019-02-08T07:35:28.347Z,7.20
2019-02-08T07:36:29.264Z,7.20
2019-02-08T07:37:30.094Z,7.20
2019-02-08T07:38:31.077Z,7.20
2019-02-08T07:39:31.919Z,7.20
2019-02-08T07:40:32.866Z,7.30
2019-02-08T07:41:33.702Z,7.30
2019-02-08T07:42:34.572Z,7.30
2019-02-08T07:43:35.472Z,7.30
2019-02-08T07:44:36.297Z,7.30
2019-02-08T07:45:37.158Z,7.30
2019-02-08T07:46:37.978Z,7.30
2019-02-08T07:47:38.842Z,7.30
2019-02-08T07:48:39.701Z,7.30
2019-02-08T07:49:40.555Z,7.30
2019-02-08T07:50:41.405Z,7.30
2019-02-08T07:51:42.296Z,7.30
2019-02-08T07:52:43.232Z,7.30
2019-02-08T07:53:44.068Z,7.30
2019-02-08T07:54:44.906Z,7.30
2019-02-08T07:55:45.889Z,7.40
2019-02-08T07:56:46.797Z,7.40
2019-02-08T07:57:47.629Z,7.40
2019-02-08T07:58:48.469Z,7.40
2019-02-08T07:59:49.350Z,7.40
2019-02-08T08:00:50.212Z,7.40
2019-02-08T08:01:51.035Z,7.50
2019-02-08T08:02:51.914Z,7.40
2019-02-08T08:03:52.758Z,7.50
2019-02-08T08:04:53.844Z,7.50
2019-02-08T08:05:54.678Z,7.50
2019-02-08T08:06:55.545Z,7.50
2019-02-08T08:07:56.425Z,7.60
2019-02-08T08:08:57.276Z,7.60
2019-02-08T08:09:58.101Z,7.60
2019-02-08T08:10:58.946Z,7.50
2019-02-08T08:11:59.779Z,7.60
2019-02-08T08:13:00.681Z,7.60
2019-02-08T08:14:01.521Z,7.60
2019-02-08T08:15:02.415Z,7.60
2019-02-08T08:16:03.250Z,7.70
2019-02-08T08:17:04.177Z,7.70
2019-02-08T08:18:05.046Z,7.70
2019-02-08T08:19:05.889Z,7.70
2019-02-08T08:20:06.716Z,7.70
2019-02-08T08:21:07.544Z,7.70
2019-02-08T08:22:08.390Z,7.70
2019-02-08T08:23:09.338Z,7.70
2019-02-08T08:24:10.185Z,7.80
2019-02-08T08:25:11.038Z,7.80
2019-02-08T08:26:11.885Z,7.90
2019-02-08T08:27:12.890Z,7.90
2019-02-08T08:28:13.730Z,7.90
2019-02-08T08:29:14.622Z,7.90
2019-02-08T08:30:15.786Z,8.00
2019-02-08T08:31:16.706Z,8.00
2019-02-08T08:32:17.546Z,8.00
2019-02-08T08:33:18.374Z,8.00
2019-02-08T08:34:19.235Z,8.00
2019-02-08T08:35:20.063Z,8.00
2019-02-08T08:36:20.895Z,8.00
2019-02-08T08:37:21.790Z,8.00
2019-02-08T08:38:22.686Z,8.00
2019-02-08T08:39:23.671Z,8.00
2019-02-08T08:40:24.498Z,8.00
2019-02-08T08:41:25.349Z,8.00
2019-02-08T08:42:26.485Z,8.00
2019-02-08T08:43:27.434Z,8.00
2019-02-08T08:44:29.753Z,8.10
2019-02-08T08:45:30.603Z,8.10
2019-02-08T08:46:31.496Z,8.10
2019-02-08T08:47:32.415Z,8.20
2019-02-08T08:48:33.255Z,8.20
2019-02-08T08:49:34.155Z,8.20
2019-02-08T08:50:34.991Z,8.30
2019-02-08T08:51:35.826Z,8.30
2019-02-08T08:52:36.687Z,8.30
2019-02-08T08:53:37.533Z,8.30
2019-02-08T08:54:38.398Z,8.30
2019-02-08T08:55:42.302Z,8.30
2019-02-08T08:56:41.990Z,8.30
2019-02-08T08:57:42.900Z,8.30
2019-02-08T08:58:43.744Z,8.30
2019-02-08T08:59:44.590Z,8.30
2019-02-08T09:00:45.420Z,8.30
2019-02-08T09:01:46.297Z,8.30
2019-02-08T09:02:47.124Z,8.30
2019-02-08T09:03:48.056Z,8.40
2019-02-08T09:04:48.937Z,8.40
2019-02-08T09:05:49.969Z,8.40
2019-02-08T09:06:50.951Z,8.40
2019-02-08T09:07:51.934Z,8.40
2019-02-08T09:08:52.831Z,8.40
2019-02-08T09:09:53.666Z,8.40
2019-02-08T09:10:54.507Z,8.40
2019-02-08T09:11:55.358Z,8.40
2019-02-08T09:12:56.320Z,8.40
2019-02-08T09:13:57.206Z,8.50
2019-02-08T09:14:58.051Z,8.40
2019-02-08T09:15:58.961Z,8.40
2019-02-08T09:16:59.864Z,8.50
2019-02-08T09:18:00.791Z,8.50
2019-02-08T09:19:01.688Z,8.50
2019-02-08T09:20:02.530Z,8.40
2019-02-08T09:21:03.549Z,8.50
2019-02-08T09:22:04.426Z,8.50
2019-02-08T09:23:05.285Z,8.50
2019-02-08T09:24:06.128Z,8.50
2019-02-08T09:25:07.075Z,8.50
2019-02-08T09:26:07.979Z,8.50
2019-02-08T09:27:08.826Z,8.60
2019-02-08T09:28:09.662Z,8.60
2019-02-08T09:29:10.517Z,8.50
2019-02-08T09:30:11.483Z,8.50
2019-02-08T09:31:12.313Z,8.50
2019-02-08T09:32:13.191Z,8.60
2019-02-08T09:33:14.120Z,8.60
2019-02-08T09:34:14.988Z,8.60
2019-02-08T09:35:15.862Z,8.70
2019-02-08T09:36:16.803Z,8.60
2019-02-08T09:38:38.086Z,8.70
2019-02-08T09:39:39.013Z,8.70
2019-02-08T09:40:39.875Z,8.70
2019-02-08T09:41:40.728Z,8.70
2019-02-08T09:42:41.579Z,8.70
2019-02-08T09:43:42.450Z,8.70
2019-02-08T09:44:45.224Z,8.70
2019-02-08T09:45:46.198Z,8.60
2019-02-08T09:46:47.137Z,8.60
2019-02-08T09:47:48.099Z,8.60
2019-02-08T09:48:48.950Z,8.60
2019-02-08T09:49:49.803Z,8.70
2019-02-08T09:50:50.644Z,8.70
2019-02-08T09:51:51.520Z,8.70
2019-02-08T09:52:52.376Z,8.80
2019-02-08T09:53:53.225Z,8.80
2019-02-08T09:54:54.146Z,8.80
2019-02-08T09:55:57.913Z,8.80
2019-02-08T09:56:57.731Z,8.80
2019-02-08T09:57:58.595Z,8.90
2019-02-08T09:58:59.405Z,8.80
2019-02-08T10:00:00.339Z,8.80
2019-02-08T10:01:01.231Z,8.80
2019-02-08T10:02:02.178Z,8.80
2019-02-08T10:03:03.110Z,8.90
2019-02-08T10:04:03.976Z,8.90
2019-02-08T10:05:04.877Z,8.90
2019-02-08T10:06:05.849Z,8.90
2019-02-08T10:07:06.857Z,8.90
2019-02-08T10:08:07.937Z,8.80
2019-02-08T10:09:08.773Z,8.90
2019-02-08T10:10:09.605Z,8.80
2019-02-08T10:11:10.496Z,8.80
2019-02-08T10:12:11.407Z,8.90
2019-02-08T10:13:12.297Z,8.80
2019-02-08T10:14:13.115Z,8.90
2019-02-08T10:15:13.990Z,9.00
2019-02-08T10:16:15.027Z,9.00
2019-02-08T10:17:15.838Z,9.00
2019-02-08T10:18:16.702Z,9.00
2019-02-08T10:19:17.590Z,9.10
2019-02-08T10:20:18.495Z,9.10
2019-02-08T10:21:19.522Z,9.10
2019-02-08T10:22:20.428Z,9.20
2019-02-08T10:23:21.336Z,9.20
2019-02-08T10:24:22.212Z,9.20
2019-02-08T10:25:23.072Z,9.30
2019-02-08T10:26:23.962Z,9.30
2019-02-08T10:27:24.877Z,9.30
2019-02-08T10:28:25.776Z,9.30
2019-02-08T10:29:26.681Z,9.30
2019-02-08T10:30:27.817Z,9.40
2019-02-08T10:31:28.655Z,9.40
2019-02-08T10:32:31.013Z,9.40
2019-02-08T10:33:32.000Z,9.40
2019-02-08T10:34:32.928Z,9.40
2019-02-08T10:35:34.218Z,9.50
2019-02-08T10:36:35.198Z,9.50
2019-02-08T10:37:36.019Z,9.50
2019-02-08T10:38:36.910Z,9.50
2019-02-08T10:39:37.860Z,9.60
2019-02-08T10:40:38.748Z,9.60
2019-02-08T10:41:39.656Z,9.60
2019-02-08T10:42:41.754Z,9.60
2019-02-08T10:43:42.842Z,9.70
2019-02-08T10:44:43.707Z,9.70
2019-02-08T10:45:44.747Z,9.70
2019-02-08T10:46:45.595Z,9.70
2019-02-08T10:47:46.560Z,9.70
2019-02-08T10:48:47.445Z,9.70
2019-02-08T10:49:48.291Z,9.80
2019-02-08T10:50:49.211Z,9.80
2019-02-08T10:51:50.053Z,9.80
2019-02-08T10:52:50.973Z,9.80
2019-02-08T10:53:53.310Z,9.80
2019-02-08T10:54:54.343Z,9.80
2019-02-08T10:55:55.265Z,9.90
2019-02-08T10:56:56.138Z,9.90
2019-02-08T10:57:57.102Z,9.90
2019-02-08T10:58:58.074Z,9.90
2019-02-08T10:59:58.935Z,9.90
2019-02-08T11:00:59.783Z,9.90
2019-02-08T11:02:00.655Z,9.90
2019-02-08T11:03:01.491Z,9.90
2019-02-08T11:04:02.478Z,9.90
2019-02-08T11:05:03.314Z,9.80
2019-02-08T11:06:04.413Z,9.80
2019-02-08T11:07:05.214Z,9.80
2019-02-08T11:08:06.109Z,9.80
2019-02-08T11:09:06.986Z,9.80
2019-02-08T11:10:07.845Z,9.80
2019-02-08T11:11:08.828Z,9.80
2019-02-08T11:12:09.653Z,9.80
2019-02-08T11:13:10.810Z,9.90
2019-02-08T11:14:11.643Z,9.90
2019-02-08T11:15:12.484Z,9.80
2019-02-08T11:16:13.304Z,9.80
2019-02-08T11:17:14.162Z,9.90
2019-02-08T11:18:15.177Z,9.90
2019-02-08T11:19:16.036Z,9.90
2019-02-08T11:20:16.914Z,9.90
2019-02-08T11:21:17.860Z,9.90
2019-02-08T11:22:18.758Z,9.90
2019-02-08T11:23:19.685Z,9.90
2019-02-08T11:24:20.508Z,10.00
2019-02-08T11:25:21.346Z,10.00
2019-02-08T11:26:24.135Z,10.00
2019-02-08T11:27:24.963Z,10.00
2019-02-08T11:28:25.849Z,10.00
2019-02-08T11:29:26.708Z,10.00
2019-02-08T11:30:27.543Z,10.00
2019-02-08T11:31:28.394Z,10.00
2019-02-08T11:32:42.964Z,10.00
2019-02-08T11:33:32.191Z,10.00
2019-02-08T11:34:33.125Z,10.10
2019-02-08T11:35:34.124Z,10.10
2019-02-08T11:36:34.945Z,10.10
2019-02-08T11:37:35.785Z,10.10
2019-02-08T11:38:36.650Z,10.10
2019-02-08T11:39:37.461Z,10.10
2019-02-08T11:40:38.298Z,10.20
2019-02-08T11:41:40.305Z,10.10
2019-02-08T11:42:41.167Z,10.10
2019-02-08T11:43:42.066Z,10.20
2019-02-08T11:44:42.908Z,10.20
2019-02-08T11:45:44.006Z,10.20
2019-02-08T11:46:44.847Z,10.20
2019-02-08T11:47:45.723Z,10.20
2019-02-08T11:48:46.620Z,10.10
2019-02-08T11:49:47.460Z,10.10
2019-02-08T11:50:48.313Z,10.10
2019-02-08T11:51:49.136Z,10.10
2019-02-08T11:52:50.213Z,10.10
2019-02-08T11:53:51.071Z,10.20
2019-02-08T11:54:51.945Z,10.20
2019-02-08T11:55:52.783Z,10.10
2019-02-08T11:56:53.633Z,10.10
2019-02-08T11:57:54.729Z,10.10
2019-02-08T11:58:55.536Z,10.10
2019-02-08T11:59:56.508Z,10.10
2019-02-08T12:00:57.370Z,10.20
2019-02-08T12:01:58.236Z,10.20
2019-02-08T12:02:59.089Z,10.20
2019-02-08T12:03:59.957Z,10.20
2019-02-08T12:05:00.768Z,10.20
2019-02-08T12:06:01.632Z,10.20
2019-02-08T12:07:02.538Z,10.30
2019-02-08T12:08:03.457Z,10.30
2019-02-08T12:09:04.315Z,10.30
2019-02-08T12:10:05.160Z,10.40
2019-02-08T12:11:06.043Z,10.40
2019-02-08T12:12:07.029Z,10.40
2019-02-08T12:13:07.894Z,10.30
2019-02-08T12:14:08.901Z,10.30
2019-02-08T12:15:09.834Z,10.30
2019-02-08T12:16:10.799Z,10.30
2019-02-08T12:17:11.731Z,10.30
2019-02-08T12:18:12.582Z,10.30
2019-02-08T12:19:13.450Z,10.20
2019-02-08T12:20:14.403Z,10.20
2019-02-08T12:21:15.215Z,10.20
2019-02-08T12:22:16.063Z,10.30
2019-02-08T12:23:16.973Z,10.20
2019-02-08T12:24:17.812Z,10.20
2019-02-08T12:25:18.705Z,10.20
2019-02-08T12:26:19.606Z,10.10
2019-02-08T12:27:20.549Z,10.10
2019-02-08T12:28:21.382Z,10.10
2019-02-08T12:29:22.222Z,10.10
2019-02-08T12:30:23.083Z,10.10
2019-02-08T12:31:23.923Z,10.10
2019-02-08T12:32:25.038Z,10.10
2019-02-08T12:33:25.995Z,10.10
2019-02-08T12:34:27.006Z,10.10
2019-02-08T12:35:27.890Z,10.10
2019-02-08T12:36:28.759Z,10.10
2019-02-08T12:37:29.630Z,10.00
2019-02-08T12:38:30.515Z,10.00
2019-02-08T12:39:31.416Z,10.00
2019-02-08T12:40:32.264Z,10.00
2019-02-08T12:41:33.090Z,10.10
2019-02-08T12:42:33.960Z,10.10
2019-02-08T12:43:34.800Z,10.10
2019-02-08T12:44:35.654Z,10.10
2019-02-08T12:45:36.611Z,10.10
2019-02-08T12:46:37.469Z,10.00
2019-02-08T12:47:38.334Z,10.00
2019-02-08T12:48:39.163Z,10.10
2019-02-08T12:49:40.121Z,10.10
2019-02-08T12:50:41.086Z,10.10
2019-02-08T12:51:41.970Z,10.10
2019-02-08T12:52:43.019Z,10.10
2019-02-08T12:53:43.881Z,10.10
2019-02-08T12:54:44.828Z,10.10
2019-02-08T12:55:45.709Z,10.10
2019-02-08T12:56:46.584Z,10.10
2019-02-08T12:57:47.459Z,10.10
2019-02-08T12:58:48.401Z,10.10
2019-02-08T12:59:49.256Z,10.10
2019-02-08T13:00:50.262Z,10.10
2019-02-08T13:01:51.203Z,10.10
2019-02-08T13:02:52.189Z,10.10
2019-02-08T13:03:53.118Z,10.20
2019-02-08T13:04:53.999Z,10.20
2019-02-08T13:05:54.931Z,10.20
2019-02-08T13:06:55.788Z,10.20
2019-02-08T13:07:56.860Z,10.20
2019-02-08T13:08:57.790Z,10.20
2019-02-08T13:09:58.690Z,10.20
2019-02-08T13:11:00.672Z,10.10
2019-02-08T13:12:01.774Z,10.00
2019-02-08T13:13:02.846Z,10.00
2019-02-08T13:14:03.818Z,10.00
2019-02-08T13:15:04.800Z,10.00
2019-02-08T13:16:05.662Z,10.00
2019-02-08T13:17:06.495Z,9.90
2019-02-08T13:18:07.310Z,10.00
2019-02-08T13:19:08.157Z,9.90
2019-02-08T13:20:08.989Z,9.90
2019-02-08T13:21:10.218Z,9.90
2019-02-08T13:22:11.046Z,9.90
2019-02-08T13:23:11.996Z,9.90
2019-02-08T13:24:12.932Z,10.00
2019-02-08T13:25:13.799Z,10.00
2019-02-08T13:26:14.898Z,10.00
2019-02-08T13:27:15.736Z,10.00
2019-02-08T13:28:16.616Z,10.00
2019-02-08T13:29:17.528Z,10.00